Time;durP1;ratioP1;P1;durP2;ratioP2;P2;SDS_P1;SDS_P2;PMS_P1;PMS_P2;Temp;Humidity;BMP_temperature;BMP_pressure;BME280_temperature;BME280_humidity;BME280_pressure;Samples;Min_cycle;Max_cycle;Signal;HPM_P1;HPM_P2
2022/06/18 00:01:35;;;;;;;2.58;1.30;;;21.40;76.00;;;;;;5073279;28;20029;-84
2022/06/18 00:04:14;;;;;;;4.43;1.00;;;21.40;76.10;;;;;;5068749;28;20057;-84
2022/06/18 00:07:02;;;;;;;5.40;1.35;;;21.40;75.20;;;;;;5072363;28;20510;-85
2022/06/18 00:09:33;;;;;;;3.40;1.38;;;21.40;75.30;;;;;;5070554;28;20032;-83
2022/06/18 00:15:23;;;;;;;5.05;1.42;;;21.50;74.70;;;;;;5076759;28;20061;-84
2022/06/18 00:17:49;;;;;;;2.50;1.30;;;21.50;74.70;;;;;;5093723;28;20475;-85
2022/06/18 00:20:16;;;;;;;6.10;1.35;;;21.50;75.00;;;;;;5066977;28;20079;-84
2022/06/18 00:22:53;;;;;;;2.47;0.95;;;21.50;74.70;;;;;;5053489;28;20057;-84
2022/06/18 00:25:22;;;;;;;1.90;1.33;;;21.40;74.50;;;;;;5066319;28;20082;-85
2022/06/18 00:27:48;;;;;;;2.65;1.33;;;21.40;74.60;;;;;;5072612;28;20025;-84
2022/06/18 00:30:24;;;;;;;4.53;1.40;;;21.40;74.80;;;;;;5073559;28;20024;-85
2022/06/18 00:32:49;;;;;;;8.25;1.20;;;21.40;74.60;;;;;;5067577;28;20025;-84
2022/06/18 00:35:16;;;;;;;4.25;1.20;;;21.40;74.10;;;;;;5063606;28;20362;-84
2022/06/18 00:37:43;;;;;;;4.07;1.48;;;21.40;73.60;;;;;;5072927;28;20046;-83
2022/06/18 00:40:21;;;;;;;1.25;1.00;;;21.40;73.70;;;;;;5072139;28;20055;-85
2022/06/18 00:42:48;;;;;;;3.83;1.52;;;21.40;73.30;;;;;;5073031;28;20028;-85
2022/06/18 00:45:30;;;;;;;1.67;1.20;;;21.40;73.60;;;;;;5058914;28;20068;-84
2022/06/18 00:48:18;;;;;;;2.33;1.30;;;21.40;73.40;;;;;;5052868;28;20404;-84
2022/06/18 00:50:59;;;;;;;2.60;1.10;;;21.40;73.80;;;;;;5086937;28;20099;-84
2022/06/18 00:53:28;;;;;;;2.20;1.13;;;21.40;73.90;;;;;;5093085;28;20043;-85
2022/06/18 00:56:12;;;;;;;5.88;1.05;;;21.50;74.40;;;;;;5073571;28;20481;-85
2022/06/18 00:58:54;;;;;;;7.38;1.20;;;21.40;73.90;;;;;;5071555;28;20028;-84
2022/06/18 01:01:26;;;;;;;1.83;1.10;;;21.40;74.10;;;;;;5051530;28;20039;-85
2022/06/18 01:03:52;;;;;;;1.58;1.30;;;21.40;72.80;;;;;;5051941;28;20040;-85
2022/06/18 01:06:38;;;;;;;3.35;1.40;;;21.50;72.10;;;;;;5072302;28;20028;-85
2022/06/18 01:09:32;;;;;;;1.80;1.10;;;21.50;71.70;;;;;;5072465;28;20043;-85
2022/06/18 01:11:58;;;;;;;6.22;1.38;;;21.50;71.30;;;;;;5072337;28;20036;-85
2022/06/18 01:14:37;;;;;;;6.30;1.20;;;21.60;70.30;;;;;;5082112;28;20074;-84
2022/06/18 01:17:04;;;;;;;1.95;1.10;;;21.60;70.00;;;;;;5071393;28;20028;-84
2022/06/18 01:19:34;;;;;;;3.30;1.33;;;21.60;69.10;;;;;;5072646;28;20024;-85
2022/06/18 01:25:23;;;;;;;2.25;1.20;;;21.70;68.40;;;;;;5052278;28;20039;-85
2022/06/18 01:27:49;;;;;;;3.55;1.15;;;21.70;68.20;;;;;;5055458;28;20035;-85
2022/06/18 01:30:20;;;;;;;4.45;0.88;;;21.70;67.50;;;;;;5072548;28;20032;-85
2022/06/18 01:32:48;;;;;;;2.38;1.35;;;21.70;67.40;;;;;;5086538;28;20012;-85
2022/06/18 01:35:42;;;;;;;2.28;1.10;;;21.80;66.80;;;;;;5069968;28;20112;-84
2022/06/18 01:38:16;;;;;;;8.18;1.35;;;21.80;65.60;;;;;;5072513;28;20024;-84
2022/06/18 01:44:06;;;;;;;3.75;1.20;;;22.00;63.60;;;;;;5072150;28;20696;-84
2022/06/18 01:46:47;;;;;;;3.45;1.13;;;22.00;62.90;;;;;;5071146;28;20028;-85
2022/06/18 01:49:18;;;;;;;3.13;1.10;;;22.00;62.20;;;;;;5071975;28;20032;-86
2022/06/18 01:51:48;;;;;;;3.45;1.45;;;22.00;63.60;;;;;;5069915;28;20024;-84
2022/06/18 01:54:22;;;;;;;2.97;0.90;;;22.00;61.90;;;;;;5071598;28;20016;-85
2022/06/18 01:56:54;;;;;;;6.57;1.85;;;22.00;61.70;;;;;;5072061;28;20028;-85
2022/06/18 01:59:47;;;;;;;6.07;1.25;;;22.00;60.60;;;;;;5052058;28;20074;-85
2022/06/18 02:02:13;;;;;;;1.60;1.02;;;22.10;60.30;;;;;;5059597;28;20082;-84
2022/06/18 02:04:38;;;;;;;2.10;1.05;;;22.10;60.10;;;;;;5068192;28;20473;-83
2022/06/18 02:07:07;;;;;;;3.42;0.98;;;22.20;59.70;;;;;;5075955;28;20055;-84
2022/06/18 02:09:57;;;;;;;3.67;0.98;;;22.10;59.80;;;;;;5074443;28;20020;-85
2022/06/18 02:12:27;;;;;;;2.42;1.10;;;22.10;59.00;;;;;;5069547;28;20376;-86
2022/06/18 02:14:57;;;;;;;4.13;1.00;;;22.10;58.90;;;;;;5075614;28;20021;-85
2022/06/18 02:17:27;;;;;;;1.63;1.20;;;22.10;58.90;;;;;;5075703;28;20029;-84
2022/06/18 02:20:15;;;;;;;5.22;1.30;;;22.20;58.60;;;;;;5074148;28;20047;-84
2022/06/18 02:22:46;;;;;;;4.90;1.42;;;22.20;57.60;;;;;;5074970;28;20035;-85
2022/06/18 02:25:14;;;;;;;2.90;0.80;;;22.20;57.60;;;;;;5080328;28;20024;-84
2022/06/18 02:27:54;;;;;;;2.17;1.10;;;22.20;57.40;;;;;;5079949;28;20465;-85
2022/06/18 02:30:23;;;;;;;0.98;0.80;;;22.20;57.50;;;;;;5074031;28;20040;-85
2022/06/18 02:33:22;;;;;;;1.02;0.93;;;22.20;57.00;;;;;;5074835;28;20012;-86
2022/06/18 02:35:48;;;;;;;7.75;1.25;;;22.20;57.20;;;;;;5074862;28;20054;-85
2022/06/18 02:38:17;;;;;;;1.50;1.10;;;22.20;56.70;;;;;;5074133;28;20178;-85
2022/06/18 02:41:05;;;;;;;3.33;1.00;;;22.20;56.90;;;;;;5073000;28;20113;-86
2022/06/18 02:43:32;;;;;;;4.13;1.02;;;22.20;56.20;;;;;;5055294;28;20024;-84
2022/06/18 02:45:59;;;;;;;1.50;1.10;;;22.20;56.10;;;;;;5061264;28;20028;-85
2022/06/18 02:48:36;;;;;;;3.25;1.05;;;22.20;55.80;;;;;;5075397;28;20016;-84
2022/06/18 02:51:02;;;;;;;8.48;0.93;;;22.30;55.50;;;;;;5083324;28;20053;-84
2022/06/18 02:53:29;;;;;;;9.23;1.02;;;22.40;55.10;;;;;;5084786;28;20024;-84
2022/06/18 02:56:00;;;;;;;2.00;1.13;;;22.40;54.80;;;;;;5080747;28;20056;-85
2022/06/18 02:58:29;;;;;;;4.68;1.02;;;22.40;54.60;;;;;;5090497;28;20024;-84
2022/06/18 03:01:00;;;;;;;4.38;0.88;;;22.40;54.70;;;;;;5078219;28;20029;-85
2022/06/18 03:03:43;;;;;;;3.78;1.17;;;22.40;54.90;;;;;;5073332;28;20073;-84
2022/06/18 03:06:10;;;;;;;3.65;0.70;;;22.30;54.90;;;;;;5074867;28;20063;-84
2022/06/18 03:08:37;;;;;;;5.68;1.17;;;22.30;54.80;;;;;;5080786;28;20012;-85
2022/06/18 03:13:56;;;;;;;2.63;1.00;;;22.20;54.70;;;;;;5066248;28;20039;-84
2022/06/18 03:16:24;;;;;;;2.20;0.93;;;22.20;55.00;;;;;;5067191;28;20029;-85
2022/06/18 03:18:55;;;;;;;2.20;1.02;;;22.20;54.40;;;;;;5074758;28;20036;-85
2022/06/18 03:21:50;;;;;;;1.42;0.93;;;22.20;54.50;;;;;;5074031;28;20024;-83
2022/06/18 03:24:16;;;;;;;4.43;1.30;;;22.20;54.20;;;;;;5074557;28;20454;-83
2022/06/18 03:26:42;;;;;;;2.78;0.88;;;22.20;54.20;;;;;;5081649;28;20092;-84
2022/06/18 03:29:22;;;;;;;0.88;0.80;;;22.20;54.20;;;;;;5069147;28;20037;-83
2022/06/18 03:31:48;;;;;;;9.75;1.20;;;22.10;54.70;;;;;;5068751;28;20040;-84
2022/06/18 03:34:13;;;;;;;3.03;1.40;;;22.10;54.60;;;;;;5074351;28;20025;-84
2022/06/18 03:37:05;;;;;;;1.13;0.70;;;22.20;54.70;;;;;;5072099;28;20025;-85
2022/06/18 03:39:31;;;;;;;3.63;1.08;;;22.10;54.70;;;;;;5073864;28;20021;-84
2022/06/18 03:41:58;;;;;;;1.30;0.88;;;22.10;55.00;;;;;;5073137;28;20021;-85
2022/06/18 03:44:25;;;;;;;1.95;1.23;;;22.10;55.30;;;;;;5073806;28;20020;-85
2022/06/18 03:46:51;;;;;;;4.32;1.23;;;22.10;55.30;;;;;;5071616;28;20046;-85
2022/06/18 03:49:43;;;;;;;1.50;1.27;;;22.10;55.70;;;;;;5073912;28;20020;-84
2022/06/18 03:52:15;;;;;;;1.55;0.90;;;22.10;55.60;;;;;;5057926;28;20029;-85
2022/06/18 03:54:41;;;;;;;10.65;1.25;;;22.10;55.60;;;;;;5069531;28;20051;-84
2022/06/18 03:57:16;;;;;;;1.90;0.98;;;22.10;55.80;;;;;;5070141;28;20491;-85
2022/06/18 03:59:42;;;;;;;4.20;1.42;;;22.10;55.80;;;;;;5071972;28;20029;-84
2022/06/18 04:02:08;;;;;;;3.55;1.00;;;22.10;56.30;;;;;;5073430;28;20026;-84
2022/06/18 04:04:33;;;;;;;3.03;1.10;;;22.10;56.60;;;;;;5067997;28;20041;-85
2022/06/18 04:07:06;;;;;;;4.20;0.90;;;22.10;57.10;;;;;;5060125;28;20029;-85
2022/06/18 04:09:32;;;;;;;4.47;1.10;;;22.10;56.70;;;;;;5053340;28;20096;-84
2022/06/18 04:12:14;;;;;;;6.05;1.02;;;22.10;57.20;;;;;;5066384;28;20052;-84
2022/06/18 04:14:39;;;;;;;2.45;1.02;;;22.10;57.60;;;;;;5071410;28;20362;-83
2022/06/18 04:17:21;;;;;;;6.97;1.33;;;22.10;57.80;;;;;;5073386;28;20032;-84
2022/06/18 04:19:47;;;;;;;9.25;1.67;;;22.10;57.90;;;;;;5055381;28;20043;-85
2022/06/18 04:22:17;;;;;;;1.20;0.88;;;22.10;58.00;;;;;;5059460;28;20108;-85
2022/06/18 04:24:43;;;;;;;2.95;1.27;;;22.10;58.30;;;;;;5072587;28;20029;-86
2022/06/18 04:27:22;;;;;;;3.00;1.13;;;22.10;58.60;;;;;;5071038;28;20040;-85
2022/06/18 04:29:48;;;;;;;1.52;1.00;;;22.10;59.20;;;;;;5073107;28;20028;-86
2022/06/18 04:32:20;;;;;;;1.73;0.90;;;22.10;59.30;;;;;;5073195;28;20489;-84
2022/06/18 04:34:46;;;;;;;4.20;0.90;;;22.10;59.30;;;;;;5072608;28;20034;-84
2022/06/18 04:37:16;;;;;;;2.08;0.75;;;22.20;59.40;;;;;;5073294;28;20120;-86
2022/06/18 04:39:41;;;;;;;3.33;1.38;;;22.20;59.40;;;;;;5072760;28;20025;-84
2022/06/18 04:42:07;;;;;;;0.90;0.90;;;22.30;59.20;;;;;;5072834;28;20021;-85
2022/06/18 04:44:32;;;;;;;4.47;1.35;;;22.40;59.40;;;;;;5071601;28;20062;-85
2022/06/18 04:46:58;;;;;;;2.25;0.90;;;22.40;59.10;;;;;;5073036;28;20025;-84
2022/06/18 04:49:24;;;;;;;3.55;1.20;;;22.50;59.60;;;;;;5072666;28;20376;-84
2022/06/18 04:51:49;;;;;;;2.10;1.02;;;22.60;59.00;;;;;;5072576;28;20017;-84
2022/06/18 04:54:15;;;;;;;2.63;0.90;;;22.60;59.70;;;;;;5072525;28;20050;-84
2022/06/18 04:56:40;;;;;;;1.95;1.10;;;22.60;59.60;;;;;;5057007;28;20066;-84
2022/06/18 04:59:06;;;;;;;2.75;1.20;;;22.70;59.20;;;;;;5052959;28;20115;-84
2022/06/18 05:01:36;;;;;;;5.82;1.42;;;22.80;59.20;;;;;;5052779;28;20025;-84
2022/06/18 05:04:01;;;;;;;1.10;1.00;;;22.80;59.00;;;;;;5070218;28;20027;-85
2022/06/18 05:06:39;;;;;;;3.65;1.00;;;22.90;58.90;;;;;;5072411;28;20492;-84
2022/06/18 05:09:05;;;;;;;2.05;1.20;;;22.90;59.20;;;;;;5072803;28;20027;-88
2022/06/18 05:11:30;;;;;;;10.73;1.38;;;23.00;59.20;;;;;;5071441;28;20025;-87
2022/06/18 05:14:09;;;;;;;2.20;0.77;;;23.10;58.80;;;;;;5070884;28;20472;-85
2022/06/18 05:16:35;;;;;;;9.90;1.35;;;23.10;58.60;;;;;;5072732;28;20657;-84
2022/06/18 05:19:01;;;;;;;1.77;1.27;;;23.10;59.40;;;;;;5072618;28;20052;-84
2022/06/18 05:21:42;;;;;;;2.25;1.02;;;23.20;58.90;;;;;;5072825;28;20133;-84
2022/06/18 05:24:07;;;;;;;1.10;1.00;;;23.20;58.50;;;;;;5086905;28;20021;-85
2022/06/18 05:26:43;;;;;;;4.20;1.15;;;23.30;58.40;;;;;;5074381;28;20029;-84
2022/06/18 05:29:10;;;;;;;6.70;1.10;;;23.30;58.30;;;;;;5071815;28;20078;-85
2022/06/18 05:31:36;;;;;;;2.05;1.10;;;23.40;58.10;;;;;;5071227;28;20021;-86
2022/06/18 05:34:04;;;;;;;2.80;0.93;;;23.40;58.60;;;;;;5071556;28;20029;-87
2022/06/18 05:36:30;;;;;;;1.38;1.00;;;23.40;58.70;;;;;;5071445;28;20033;-85
2022/06/18 05:38:57;;;;;;;2.35;1.05;;;23.50;59.10;;;;;;5076363;28;20020;-85
2022/06/18 05:41:24;;;;;;;3.90;1.42;;;23.50;58.70;;;;;;5075441;28;20024;-86
2022/06/18 05:43:50;;;;;;;6.68;1.45;;;23.60;58.80;;;;;;5075060;28;20033;-86
2022/06/18 05:46:26;;;;;;;1.35;1.08;;;23.60;59.10;;;;;;5057728;28;20040;-85
2022/06/18 05:48:53;;;;;;;2.47;1.20;;;23.70;59.60;;;;;;5056497;28;20079;-86
2022/06/18 05:51:27;;;;;;;5.55;1.30;;;23.80;59.00;;;;;;5071873;28;20024;-86
2022/06/18 05:53:53;;;;;;;1.30;1.05;;;23.90;59.30;;;;;;5075093;28;20066;-86
2022/06/18 05:56:19;;;;;;;3.22;1.08;;;23.90;59.60;;;;;;5072180;28;20473;-85
2022/06/18 05:58:46;;;;;;;3.50;1.23;;;24.00;58.80;;;;;;5070320;28;20025;-86
2022/06/18 06:01:11;;;;;;;2.85;1.40;;;24.00;58.60;;;;;;5071661;28;20032;-85
2022/06/18 06:03:37;;;;;;;2.72;1.00;;;24.10;59.40;;;;;;5070640;28;20029;-86
2022/06/18 06:06:03;;;;;;;10.27;1.17;;;24.20;60.00;;;;;;5065545;28;20033;-86
2022/06/18 06:08:37;;;;;;;1.92;0.90;;;24.20;58.40;;;;;;5073379;28;20472;-87
2022/06/18 06:13:46;;;;;;;2.85;1.08;;;24.20;58.70;;;;;;5066662;28;20019;-85
2022/06/18 06:16:21;;;;;;;2.22;1.38;;;24.30;58.70;;;;;;5072730;28;20468;-85
2022/06/18 06:18:47;;;;;;;2.22;1.05;;;24.30;58.60;;;;;;5074951;28;20480;-86
2022/06/18 06:21:20;;;;;;;2.63;1.15;;;24.40;58.40;;;;;;5069852;28;20107;-86
2022/06/18 06:23:45;;;;;;;6.05;1.10;;;24.40;59.50;;;;;;5072633;28;20031;-84
2022/06/18 06:26:26;;;;;;;3.22;1.17;;;24.40;59.30;;;;;;5061142;28;20033;-85
2022/06/18 06:28:52;;;;;;;2.13;1.27;;;24.40;58.60;;;;;;5059752;28;20034;-85
2022/06/18 06:31:18;;;;;;;2.65;1.23;;;24.50;59.30;;;;;;5068228;28;20021;-85
2022/06/18 06:33:44;;;;;;;5.47;1.30;;;24.50;60.00;;;;;;5064589;28;20063;-86
2022/06/18 06:36:11;;;;;;;3.03;1.20;;;24.50;59.80;;;;;;5071153;28;20060;-85
2022/06/18 06:38:38;;;;;;;2.15;0.98;;;24.50;60.80;;;;;;5071554;28;20387;-86
2022/06/18 06:41:17;;;;;;;5.95;1.40;;;24.60;62.00;;;;;;5068282;28;20112;-86
2022/06/18 06:43:43;;;;;;;4.38;1.10;;;24.60;63.60;;;;;;5069968;28;20025;-86
2022/06/18 06:46:12;;;;;;;5.20;1.40;;;24.60;63.70;;;;;;5079306;28;20039;-86
2022/06/18 06:48:38;;;;;;;3.78;1.40;;;24.60;64.80;;;;;;5073562;28;20020;-86
2022/06/18 06:51:10;;;;;;;1.60;1.30;;;24.70;62.00;;;;;;5073101;28;20039;-86
2022/06/18 06:53:36;;;;;;;1.58;1.23;;;24.80;62.10;;;;;;5073510;28;20447;-86
2022/06/18 06:58:47;;;;;;;0.90;0.85;;;24.90;63.70;;;;;;5074982;28;20187;-85
2022/06/18 07:01:14;;;;;;;4.72;1.88;;;25.10;60.90;;;;;;5071021;28;20124;-86
2022/06/18 07:03:39;;;;;;;3.33;1.13;;;25.00;62.20;;;;;;5071772;28;20395;-86
2022/06/18 07:06:05;;;;;;;4.65;1.27;;;25.10;64.40;;;;;;5068244;28;20043;-86
2022/06/18 07:08:32;;;;;;;3.10;1.20;;;25.10;64.90;;;;;;5068811;28;20419;-86
2022/06/18 07:10:58;;;;;;;5.75;1.20;;;25.20;63.80;;;;;;5066589;28;20096;-86
2022/06/18 07:13:23;;;;;;;7.07;1.30;;;25.20;64.10;;;;;;5064253;28;20117;-86
2022/06/18 07:15:51;;;;;;;4.82;1.83;;;25.30;63.90;;;;;;5072261;28;20381;-86
2022/06/18 07:18:20;;;;;;;11.00;1.50;;;25.50;64.00;;;;;;5074076;28;20036;-85
2022/06/18 07:20:46;;;;;;;6.70;1.80;;;25.60;63.40;;;;;;5074194;28;20064;-86
2022/06/18 07:23:12;;;;;;;1.92;1.30;;;25.70;63.40;;;;;;5074290;28;20051;-86
2022/06/18 07:25:39;;;;;;;5.70;1.33;;;25.90;62.70;;;;;;5067202;28;20054;-86
2022/06/18 07:28:04;;;;;;;1.98;1.40;;;26.00;62.60;;;;;;5073793;28;20024;-86
2022/06/18 07:30:31;;;;;;;9.07;1.67;;;25.90;65.70;;;;;;5072613;28;20032;-85
2022/06/18 07:32:57;;;;;;;7.97;2.00;;;26.10;62.80;;;;;;5056905;28;20021;-84
2022/06/18 07:35:28;;;;;;;3.15;1.60;;;26.20;62.70;;;;;;5068823;28;20033;-85
2022/06/18 07:38:05;;;;;;;5.45;1.70;;;26.20;63.10;;;;;;5068643;28;20103;-86
2022/06/18 07:40:36;;;;;;;8.48;2.30;;;26.30;64.10;;;;;;5066497;28;20044;-86
2022/06/18 07:43:07;;;;;;;8.60;1.98;;;26.30;66.10;;;;;;5073000;28;20028;-85
2022/06/18 07:45:33;;;;;;;7.00;2.03;;;26.40;63.50;;;;;;5071707;28;20031;-85
2022/06/18 07:47:58;;;;;;;11.73;1.83;;;26.50;62.70;;;;;;5070242;28;20464;-87
2022/06/18 07:51:03;;;;;;;9.75;2.88;;;26.40;60.80;;;;;;5069297;28;20033;-85
2022/06/18 07:53:29;;;;;;;9.57;2.05;;;26.40;62.50;;;;;;5070073;28;20029;-85
2022/06/18 07:55:56;;;;;;;13.18;2.92;;;26.60;63.40;;;;;;5071719;28;20040;-85
2022/06/18 07:58:22;;;;;;;7.10;2.20;;;26.70;61.50;;;;;;5073257;28;20493;-84
2022/06/18 08:00:47;;;;;;;8.63;2.40;;;26.80;59.20;;;;;;5073922;28;20029;-85
2022/06/18 08:03:15;;;;;;;7.72;1.92;;;26.90;58.70;;;;;;5073568;28;20039;-85
2022/06/18 08:05:42;;;;;;;12.52;2.10;;;26.90;59.10;;;;;;5072778;28;20048;-86
2022/06/18 08:08:08;;;;;;;8.02;2.13;;;27.00;58.30;;;;;;5072034;28;20028;-85
2022/06/18 08:10:36;;;;;;;8.43;2.35;;;27.00;58.40;;;;;;5073180;28;20027;-87
2022/06/18 08:13:02;;;;;;;21.50;2.90;;;27.00;57.70;;;;;;5073536;28;20021;-85
2022/06/18 08:15:50;;;;;;;7.57;2.10;;;27.10;57.30;;;;;;5073572;28;20362;-85
2022/06/18 08:18:34;;;;;;;18.38;2.58;;;27.10;56.80;;;;;;5073541;28;20021;-87
2022/06/18 08:21:07;;;;;;;11.15;2.85;;;27.10;59.30;;;;;;5073481;28;20028;-85
2022/06/18 08:23:34;;;;;;;11.80;1.88;;;27.30;57.00;;;;;;5071675;28;20519;-85
2022/06/18 08:26:07;;;;;;;8.68;2.80;;;27.30;56.50;;;;;;5072469;28;20028;-86
2022/06/18 08:28:36;;;;;;;16.75;3.05;;;27.30;57.10;;;;;;5073297;28;20021;-86
2022/06/18 08:31:03;;;;;;;15.40;2.47;;;27.40;57.10;;;;;;5073391;28;20431;-87
2022/06/18 08:33:30;;;;;;;13.93;2.33;;;27.40;57.10;;;;;;5072727;28;20028;-87
2022/06/18 08:35:57;;;;;;;17.60;2.83;;;27.50;56.30;;;;;;5072590;28;20075;-84
2022/06/18 08:38:23;;;;;;;10.77;3.15;;;27.70;55.50;;;;;;5072943;28;20024;-85
2022/06/18 08:41:10;;;;;;;12.30;2.50;;;27.70;55.70;;;;;;5072771;28;20030;-86
2022/06/18 08:43:46;;;;;;;12.93;3.28;;;27.80;54.80;;;;;;5072767;28;20025;-86
2022/06/18 08:46:49;;;;;;;14.65;3.00;;;27.90;54.10;;;;;;5072487;28;20021;-86
2022/06/18 08:49:39;;;;;;;10.68;2.72;;;27.90;54.20;;;;;;5072429;28;20096;-85
2022/06/18 08:52:23;;;;;;;9.77;2.30;;;28.10;53.90;;;;;;5073004;28;20021;-86
2022/06/18 08:55:19;;;;;;;16.17;2.63;;;28.20;53.60;;;;;;5072095;28;20492;-85
2022/06/18 08:58:04;;;;;;;;;;;28.20;52.90;;;;;;5071948;28;20082;-87
2022/06/18 09:00:43;;;;;;;8.30;2.70;;;28.30;53.10;;;;;;5065649;28;20348;-86
2022/06/18 09:03:41;;;;;;;11.15;2.75;;;28.40;53.10;;;;;;5061179;28;20404;-85
2022/06/18 09:06:45;;;;;;;12.88;2.92;;;28.50;52.70;;;;;;5052662;28;20049;-85
2022/06/18 09:09:17;;;;;;;16.58;3.47;;;28.50;52.40;;;;;;5070468;28;20574;-86
2022/06/18 09:12:17;;;;;;;13.98;3.58;;;28.50;51.70;;;;;;5070414;28;20108;-86
2022/06/18 09:14:52;;;;;;;13.23;2.95;;;28.70;51.30;;;;;;5067916;28;20396;-85
2022/06/18 09:17:25;;;;;;;;;;;28.80;51.80;;;;;;5056378;28;20039;-86
2022/06/18 09:19:58;;;;;;;16.65;3.17;;;28.90;50.40;;;;;;5071069;28;20252;-85
2022/06/18 09:22:33;;;;;;;14.85;3.78;;;28.90;49.80;;;;;;5072719;28;20028;-85
2022/06/18 09:25:41;;;;;;;17.63;3.08;;;29.10;49.30;;;;;;5062641;28;20090;-86
2022/06/18 09:28:13;;;;;;;11.52;3.65;;;29.00;50.30;;;;;;5056431;28;20032;-86
2022/06/18 09:30:42;;;;;;;8.07;3.28;;;29.10;49.70;;;;;;5071259;28;20028;-87
2022/06/18 09:33:30;;;;;;;23.08;3.90;;;29.10;48.40;;;;;;5072347;28;20409;-87
2022/06/18 09:36:15;;;;;;;20.13;3.45;;;29.10;48.60;;;;;;5066616;28;20033;-85
2022/06/18 09:38:47;;;;;;;9.88;2.80;;;29.10;48.30;;;;;;5056397;28;20029;-87
2022/06/18 09:41:53;;;;;;;18.05;4.03;;;29.10;48.60;;;;;;5069700;28;20040;-86
2022/06/18 09:44:48;;;;;;;18.95;3.15;;;29.20;47.40;;;;;;5042548;28;20033;-87
2022/06/18 09:47:34;;;;;;;18.08;3.33;;;29.20;48.20;;;;;;5054674;28;20040;-86
2022/06/18 09:50:01;;;;;;;16.92;3.60;;;29.30;48.90;;;;;;5070633;28;20112;-88
2022/06/18 09:52:36;;;;;;;25.38;5.13;;;29.40;47.10;;;;;;5070825;28;20103;-87
2022/06/18 09:55:26;;;;;;;17.30;3.25;;;29.40;47.70;;;;;;5068786;28;20411;-88
2022/06/18 09:57:57;;;;;;;14.85;3.58;;;29.50;49.20;;;;;;5067546;28;20491;-87
2022/06/18 10:00:31;;;;;;;19.33;3.63;;;29.50;48.40;;;;;;5069801;28;20476;-88
2022/06/18 10:03:02;;;;;;;23.52;3.83;;;29.50;48.80;;;;;;5070652;28;20059;-87
2022/06/18 10:08:36;;;;;;;9.00;2.83;;;29.80;46.80;;;;;;5061318;28;20034;-88
2022/06/18 10:11:08;;;;;;;22.95;3.80;;;29.90;47.00;;;;;;5069782;28;20027;-86
2022/06/18 10:13:51;;;;;;;22.27;3.88;;;30.00;45.70;;;;;;5063616;28;20025;-88
2022/06/18 10:16:34;;;;;;;13.25;2.67;;;30.10;46.90;;;;;;5063067;28;20024;-86
2022/06/18 10:19:30;;;;;;;18.90;3.90;;;30.10;46.30;;;;;;5068796;28;20021;-84
2022/06/18 10:22:23;;;;;;;;;;;30.20;45.30;;;;;;5056777;28;20052;-85
2022/06/18 10:24:55;;;;;;;18.58;3.88;;;30.20;46.00;;;;;;5076193;28;20001;-87
2022/06/18 10:27:41;;;;;;;9.75;3.40;;;30.20;45.20;;;;;;5074988;28;20050;-85
2022/06/18 10:30:12;;;;;;;18.90;3.28;;;30.10;46.10;;;;;;5070758;28;20070;-84
2022/06/18 10:33:03;;;;;;;11.52;3.38;;;30.20;46.10;;;;;;5074298;28;20575;-84
2022/06/18 10:35:47;;;;;;;16.25;3.40;;;30.30;44.60;;;;;;5073769;28;20058;-83
2022/06/18 10:38:28;;;;;;;10.27;3.50;;;30.40;44.00;;;;;;5075522;28;20507;-83
2022/06/18 10:41:44;;;;;;;20.92;3.92;;;30.40;43.40;;;;;;5075063;28;20024;-84
2022/06/18 10:44:24;;;;;;;18.63;3.80;;;30.50;43.80;;;;;;5048700;28;20477;-85
2022/06/18 10:47:43;;;;;;;20.65;3.92;;;30.50;44.00;;;;;;5074783;28;20581;-85
2022/06/18 10:50:17;;;;;;;21.70;3.50;;;30.60;43.90;;;;;;5041996;28;20039;-84
2022/06/18 10:52:43;;;;;;;13.57;4.05;;;30.60;42.50;;;;;;5073984;28;20025;-86
2022/06/18 10:55:17;;;;;;;28.83;4.03;;;30.60;42.90;;;;;;5074068;28;20570;-85
2022/06/18 10:57:43;;;;;;;24.88;4.20;;;30.70;42.80;;;;;;5074672;28;20473;-84
2022/06/18 11:00:26;;;;;;;14.80;4.25;;;30.80;42.40;;;;;;5074515;28;20591;-85
2022/06/18 11:02:55;;;;;;;22.90;3.70;;;30.80;42.50;;;;;;5078894;28;20473;-85
2022/06/18 11:05:38;;;;;;;28.15;4.97;;;30.80;42.30;;;;;;5073717;28;20162;-84
2022/06/18 11:08:28;;;;;;;19.33;4.63;;;30.80;42.20;;;;;;5074924;28;20028;-85
2022/06/18 11:10:56;;;;;;;21.38;4.47;;;30.80;41.80;;;;;;5070830;28;20017;-85
2022/06/18 11:13:27;;;;;;;13.85;3.83;;;30.80;41.50;;;;;;5063405;28;20392;-86
2022/06/18 11:16:04;;;;;;;13.98;3.90;;;30.80;42.00;;;;;;5054296;28;20031;-85
2022/06/18 11:18:31;;;;;;;18.52;4.07;;;31.00;42.20;;;;;;5070214;28;20025;-85
2022/06/18 11:21:06;;;;;;;18.55;3.88;;;31.10;41.80;;;;;;5074049;28;20035;-85
2022/06/18 11:23:35;;;;;;;20.92;4.63;;;31.20;41.90;;;;;;5092116;28;20475;-86
2022/06/18 11:26:01;;;;;;;14.45;3.00;;;31.20;42.70;;;;;;5091135;28;20032;-86
2022/06/18 11:28:36;;;;;;;21.38;3.78;;;31.10;42.30;;;;;;5066171;28;20484;-86
2022/06/18 11:31:04;;;;;;;14.02;3.58;;;31.10;43.30;;;;;;5072477;28;20055;-86
2022/06/18 11:33:39;;;;;;;21.98;4.32;;;31.10;43.60;;;;;;5068964;28;20107;-85
2022/06/18 11:36:17;;;;;;;26.00;4.25;;;31.30;41.60;;;;;;5064584;28;20028;-85
2022/06/18 11:38:55;;;;;;;37.75;6.75;;;31.60;39.50;;;;;;5063053;28;20027;-83
2022/06/18 11:41:29;;;;;;;20.10;4.60;;;31.70;39.00;;;;;;5062848;28;20052;-83
2022/06/18 11:44:19;;;;;;;19.42;4.43;;;31.70;39.80;;;;;;5055563;28;20481;-84
2022/06/18 11:46:51;;;;;;;18.58;3.70;;;31.60;42.40;;;;;;5067296;28;20032;-84
2022/06/18 11:49:30;;;;;;;25.05;3.83;;;31.40;42.60;;;;;;5070364;28;20537;-84
2022/06/18 11:52:17;;;;;;;25.70;4.85;;;31.40;41.10;;;;;;5063756;28;20070;-84
2022/06/18 11:55:01;;;;;;;13.90;4.00;;;31.30;41.80;;;;;;5063222;28;20073;-84
2022/06/18 11:58:01;;;;;;;27.53;4.23;;;31.30;42.70;;;;;;5070481;28;20027;-83
2022/06/18 12:00:52;;;;;;;22.83;3.50;;;31.40;42.00;;;;;;5044067;28;20276;-84
2022/06/18 12:03:39;;;;;;;20.30;4.03;;;31.40;41.90;;;;;;5030537;28;20037;-84
2022/06/18 12:06:09;;;;;;;17.67;4.15;;;31.40;42.20;;;;;;5053267;28;20063;-84
2022/06/18 12:08:35;;;;;;;14.43;4.47;;;31.40;43.30;;;;;;5078871;28;20035;-84
2022/06/18 12:11:36;;;;;;;13.95;3.33;;;31.40;42.00;;;;;;5088230;28;20029;-84
2022/06/18 12:14:08;;;;;;;16.85;3.30;;;31.40;41.70;;;;;;5070053;28;20032;-84
2022/06/18 12:17:12;;;;;;;17.13;4.20;;;31.40;42.50;;;;;;5068412;28;20079;-84
2022/06/18 12:20:16;;;;;;;15.10;3.72;;;31.40;43.60;;;;;;5065588;28;20484;-84
2022/06/18 12:23:00;;;;;;;20.48;3.92;;;31.50;41.80;;;;;;5071409;28;20476;-84
2022/06/18 12:25:40;;;;;;;21.35;4.93;;;31.50;42.50;;;;;;5067374;28;20024;-85
2022/06/18 12:28:35;;;;;;;19.73;4.10;;;31.60;42.70;;;;;;5075960;28;20021;-84
2022/06/18 12:31:22;;;;;;;25.15;4.68;;;31.60;42.30;;;;;;5065394;28;20029;-83
2022/06/18 12:34:13;;;;;;;19.02;4.07;;;31.70;41.80;;;;;;5068344;28;20066;-85
2022/06/18 12:36:54;;;;;;;13.38;3.30;;;31.90;40.70;;;;;;5071909;28;20029;-84
2022/06/18 12:39:45;;;;;;;23.10;5.03;;;31.80;40.80;;;;;;5068833;28;20031;-86
2022/06/18 12:42:26;;;;;;;11.65;3.53;;;31.80;40.90;;;;;;5052659;28;20535;-85
2022/06/18 12:44:55;;;;;;;17.55;3.30;;;31.80;41.50;;;;;;5063412;28;20435;-85
2022/06/18 12:47:32;;;;;;;14.15;3.40;;;31.90;41.10;;;;;;5062495;28;20107;-85
2022/06/18 12:50:17;;;;;;;18.75;4.47;;;31.90;41.00;;;;;;5073161;28;20107;-85
2022/06/18 12:53:01;;;;;;;21.88;4.30;;;31.90;41.40;;;;;;5073004;28;20503;-85
2022/06/18 12:56:15;;;;;;;16.90;3.70;;;31.80;41.40;;;;;;5071299;28;20055;-86
2022/06/18 12:58:55;;;;;;;20.13;4.15;;;31.90;41.70;;;;;;5031260;28;20030;-85
2022/06/18 13:01:42;;;;;;;23.08;4.47;;;31.90;41.30;;;;;;5015969;28;20037;-85
2022/06/18 13:04:42;;;;;;;18.20;3.90;;;31.90;41.00;;;;;;5050155;28;20123;-85
2022/06/18 13:07:16;;;;;;;20.83;3.65;;;32.00;41.60;;;;;;5073929;28;20055;-85
2022/06/18 13:10:04;;;;;;;18.60;4.10;;;32.10;40.60;;;;;;5068911;28;20028;-85
2022/06/18 13:12:57;;;;;;;22.25;4.90;;;32.10;42.00;;;;;;5051778;28;20036;-83
2022/06/18 13:15:38;;;;;;;19.33;3.47;;;32.30;41.10;;;;;;5082034;28;20383;-85
2022/06/18 13:18:13;;;;;;;25.63;5.30;;;32.30;40.40;;;;;;5078098;28;20103;-85
2022/06/18 13:20:46;;;;;;;18.27;4.07;;;32.20;40.10;;;;;;5057815;28;20025;-84
2022/06/18 13:28:56;;;;;;;26.42;4.28;;;32.20;39.00;;;;;;5067979;28;20036;-84
2022/06/18 13:31:38;;;;;;;35.40;4.90;;;32.40;38.80;;;;;;5069922;28;20021;-84
2022/06/18 13:34:18;;;;;;;28.08;5.15;;;32.70;37.20;;;;;;5064409;28;20024;-83
2022/06/18 13:37:08;;;;;;;22.33;4.97;;;32.90;36.20;;;;;;5071179;28;20035;-85
2022/06/18 13:39:54;;;;;;;32.28;4.60;;;32.90;36.80;;;;;;5052887;28;20025;-84
2022/06/18 13:42:34;;;;;;;30.60;5.00;;;33.10;36.20;;;;;;5071023;28;20059;-83
2022/06/18 13:45:12;;;;;;;19.55;4.40;;;33.20;35.00;;;;;;5070360;28;20068;-84
2022/06/18 13:48:21;;;;;;;26.73;4.55;;;33.20;35.80;;;;;;5063469;28;20031;-83
2022/06/18 13:50:48;;;;;;;27.65;4.82;;;33.30;34.50;;;;;;5062175;28;20037;-84